Polikhnitos, Greece
Current Conditions -  °F | °C
As of 1:50 PM on Thursday 27 Nov 2014 (Local Time) from LGMT Reporting Station
Scattered Clouds Scattered Clouds  
Wind Chill: 54°   Ceiling: Unl
Heat Index: 54°   Visibility: 6mi
Dew Point: 37°   Wind: 3mph
Humidity: 54%   Direction: NA
Pressure: 30.15"   Gusts: NA
Location:  39.08°N, 26.18°E
Report Text: LGMT 271150Z VRB03KT 9999 FEW025 SCT090 12/03 Q1021
Loading
Personal Weather Stations






























Interactive Weather Map New forecast layout! Learn more

10-Day Weather Forecast

Advertisements
Track Severe Weather on mobile